This is the latest recevied weather packets stored in our database for station/object PY2WOA-13. If no packets are shown the sender has not sent any weather packets the latest 10 day(s).
| Time | Temp. | Humidity | Pressure | Rain* | Wind** | Luminosity | Snow |
|---|---|---|---|---|---|---|---|
| 1788140104 | 71° F | 100% | 760.1 mmHg | - | - | - | - |
| 1788138304 | 75° F | 81% | 758.5 mmHg | - | - | - | - |
| 1788136503 | 75° F | 81% | 758.6 mmHg | - | - | - | - |
| 1788134703 | 76° F | 80% | 758.6 mmHg | - | - | - | - |
| 1788132903 | 76° F | 83% | 758.1 mmHg | - | - | - | - |
| 1788131104 | 77° F | 84% | 757.9 mmHg | - | - | - | - |
| 1788129304 | 79° F | 75% | 757.7 mmHg | - | - | - | - |
| 1788127504 | 80° F | 73% | 757.4 mmHg | - | - | - | - |
| 1788125704 | 81° F | 74% | 756.7 mmHg | - | - | - | - |
| 1788123903 | 82° F | 74% | 756.1 mmHg | - | - | - | - |
| 1788122103 | 83° F | 70% | 756.1 mmHg | - | - | - | - |
| 1788120303 | 84° F | 68% | 755.4 mmHg | - | - | - | - |
| 1788118503 | 83° F | 69% | 755.3 mmHg | - | - | - | - |
| 1788116704 | 83° F | 68% | 755.6 mmHg | - | - | - | - |
| 1788114904 | 80° F | 79% | 756 mmHg | - | - | - | - |
| 1788113104 | 83° F | 60% | 755.7 mmHg | - | - | - | - |
| 1788111304 | 87° F | 59% | 755.4 mmHg | - | - | - | - |
| 1788109503 | 94° F | 49% | 755.3 mmHg | - | - | - | - |
| 1788107703 | 98° F | 36% | 755.6 mmHg | - | - | - | - |
| 1788105904 | 103° F | 33% | 755.8 mmHg | - | - | - | - |
| 1788104104 | 101° F | 35% | 756.5 mmHg | - | - | - | - |
| 1788102304 | 98° F | 38% | 757.1 mmHg | - | - | - | - |
| 1788100504 | 96° F | 42% | 757.7 mmHg | - | - | - | - |
| 1788098704 | 94° F | 43% | 758.2 mmHg | - | - | - | - |
| 1788096903 | 91° F | 52% | 758.8 mmHg | - | - | - | - |
* Rain since midnight (hover to see other rain measurements)
** Current wind speed in m/s (hover to see current wind gust speed)